sensor_id;sensor_type;location;lat;lon;timestamp;P1;durP1;ratioP1;P2;durP2;ratioP2
7375;SDS011;3728;42.266;24.944;2024-02-26T00:00:51;5.13;;;3.43;;
7375;SDS011;3728;42.266;24.944;2024-02-26T00:03:18;7.73;;;3.73;;
7375;SDS011;3728;42.266;24.944;2024-02-26T00:05:46;4.23;;;3.40;;
7375;SDS011;3728;42.266;24.944;2024-02-26T00:08:13;4.40;;;3.40;;
7375;SDS011;3728;42.266;24.944;2024-02-26T00:10:40;4.20;;;3.20;;
7375;SDS011;3728;42.266;24.944;2024-02-26T00:13:07;5.77;;;4.20;;
7375;SDS011;3728;42.266;24.944;2024-02-26T00:15:34;8.33;;;3.90;;
7375;SDS011;3728;42.266;24.944;2024-02-26T00:18:01;5.20;;;3.33;;
7375;SDS011;3728;42.266;24.944;2024-02-26T00:20:29;3.90;;;3.53;;
7375;SDS011;3728;42.266;24.944;2024-02-26T00:22:56;5.30;;;3.90;;
7375;SDS011;3728;42.266;24.944;2024-02-26T00:25:23;6.17;;;3.80;;
7375;SDS011;3728;42.266;24.944;2024-02-26T00:27:50;3.63;;;3.20;;
7375;SDS011;3728;42.266;24.944;2024-02-26T00:30:16;4.70;;;3.70;;
7375;SDS011;3728;42.266;24.944;2024-02-26T00:32:43;22.57;;;13.20;;
7375;SDS011;3728;42.266;24.944;2024-02-26T00:35:10;10.77;;;6.93;;
7375;SDS011;3728;42.266;24.944;2024-02-26T00:37:37;5.80;;;4.43;;
7375;SDS011;3728;42.266;24.944;2024-02-26T00:40:05;7.70;;;4.90;;
7375;SDS011;3728;42.266;24.944;2024-02-26T00:42:35;8.90;;;4.60;;
7375;SDS011;3728;42.266;24.944;2024-02-26T00:45:02;4.73;;;3.77;;
7375;SDS011;3728;42.266;24.944;2024-02-26T00:47:29;4.70;;;3.70;;
7375;SDS011;3728;42.266;24.944;2024-02-26T00:49:56;4.73;;;3.60;;
7375;SDS011;3728;42.266;24.944;2024-02-26T00:52:23;4.47;;;4.07;;
7375;SDS011;3728;42.266;24.944;2024-02-26T00:54:50;3.93;;;3.53;;
7375;SDS011;3728;42.266;24.944;2024-02-26T00:57:17;7.00;;;4.03;;
7375;SDS011;3728;42.266;24.944;2024-02-26T00:59:44;4.60;;;3.73;;
7375;SDS011;3728;42.266;24.944;2024-02-26T01:02:11;4.30;;;3.90;;
7375;SDS011;3728;42.266;24.944;2024-02-26T01:04:38;5.47;;;4.00;;
7375;SDS011;3728;42.266;24.944;2024-02-26T01:07:05;5.20;;;4.00;;
7375;SDS011;3728;42.266;24.944;2024-02-26T01:09:32;4.40;;;4.00;;
7375;SDS011;3728;42.266;24.944;2024-02-26T01:11:59;7.07;;;4.33;;
7375;SDS011;3728;42.266;24.944;2024-02-26T01:14:26;4.67;;;4.10;;
7375;SDS011;3728;42.266;24.944;2024-02-26T01:16:53;5.30;;;3.87;;
7375;SDS011;3728;42.266;24.944;2024-02-26T01:19:20;6.90;;;4.10;;
7375;SDS011;3728;42.266;24.944;2024-02-26T01:21:47;6.03;;;4.43;;
7375;SDS011;3728;42.266;24.944;2024-02-26T01:24:14;8.00;;;4.23;;
7375;SDS011;3728;42.266;24.944;2024-02-26T01:26:42;13.30;;;10.63;;
7375;SDS011;3728;42.266;24.944;2024-02-26T01:29:09;12.77;;;10.90;;
7375;SDS011;3728;42.266;24.944;2024-02-26T01:31:36;9.50;;;7.20;;
7375;SDS011;3728;42.266;24.944;2024-02-26T01:34:03;9.37;;;6.90;;
7375;SDS011;3728;42.266;24.944;2024-02-26T01:36:31;4.87;;;4.47;;
7375;SDS011;3728;42.266;24.944;2024-02-26T01:38:57;5.30;;;4.50;;
7375;SDS011;3728;42.266;24.944;2024-02-26T01:41:24;7.73;;;4.67;;
7375;SDS011;3728;42.266;24.944;2024-02-26T01:43:51;6.97;;;4.50;;
7375;SDS011;3728;42.266;24.944;2024-02-26T01:46:18;7.03;;;5.10;;
7375;SDS011;3728;42.266;24.944;2024-02-26T01:48:46;8.67;;;5.47;;
7375;SDS011;3728;42.266;24.944;2024-02-26T01:51:16;7.30;;;5.90;;
7375;SDS011;3728;42.266;24.944;2024-02-26T01:53:44;6.40;;;5.13;;
7375;SDS011;3728;42.266;24.944;2024-02-26T01:56:11;5.27;;;4.10;;
7375;SDS011;3728;42.266;24.944;2024-02-26T01:58:39;4.87;;;4.47;;
7375;SDS011;3728;42.266;24.944;2024-02-26T02:01:07;10.53;;;6.97;;
7375;SDS011;3728;42.266;24.944;2024-02-26T02:03:36;11.73;;;6.23;;
7375;SDS011;3728;42.266;24.944;2024-02-26T02:06:03;10.30;;;5.37;;
7375;SDS011;3728;42.266;24.944;2024-02-26T02:08:31;10.10;;;6.30;;
7375;SDS011;3728;42.266;24.944;2024-02-26T02:10:59;8.63;;;5.33;;
7375;SDS011;3728;42.266;24.944;2024-02-26T02:13:26;12.77;;;8.37;;
7375;SDS011;3728;42.266;24.944;2024-02-26T02:15:53;11.83;;;8.10;;
7375;SDS011;3728;42.266;24.944;2024-02-26T02:18:20;13.70;;;8.53;;
7375;SDS011;3728;42.266;24.944;2024-02-26T02:20:47;10.97;;;8.40;;
7375;SDS011;3728;42.266;24.944;2024-02-26T02:23:14;11.93;;;8.87;;
7375;SDS011;3728;42.266;24.944;2024-02-26T02:25:41;13.63;;;9.07;;
7375;SDS011;3728;42.266;24.944;2024-02-26T02:28:08;9.63;;;8.23;;
7375;SDS011;3728;42.266;24.944;2024-02-26T02:30:36;15.70;;;9.37;;
7375;SDS011;3728;42.266;24.944;2024-02-26T02:33:04;11.27;;;8.77;;
7375;SDS011;3728;42.266;24.944;2024-02-26T02:35:31;15.30;;;9.97;;
7375;SDS011;3728;42.266;24.944;2024-02-26T02:37:58;17.97;;;10.33;;
7375;SDS011;3728;42.266;24.944;2024-02-26T02:40:25;19.53;;;12.23;;
7375;SDS011;3728;42.266;24.944;2024-02-26T02:42:52;17.37;;;11.97;;
7375;SDS011;3728;42.266;24.944;2024-02-26T02:45:19;18.90;;;12.80;;
7375;SDS011;3728;42.266;24.944;2024-02-26T02:47:46;15.10;;;11.17;;
7375;SDS011;3728;42.266;24.944;2024-02-26T02:50:13;16.97;;;11.97;;
7375;SDS011;3728;42.266;24.944;2024-02-26T02:52:40;18.63;;;11.33;;
7375;SDS011;3728;42.266;24.944;2024-02-26T02:55:07;16.87;;;12.43;;
7375;SDS011;3728;42.266;24.944;2024-02-26T02:57:34;15.33;;;11.83;;
7375;SDS011;3728;42.266;24.944;2024-02-26T03:00:08;17.00;;;12.67;;
7375;SDS011;3728;42.266;24.944;2024-02-26T03:02:35;15.90;;;11.87;;
7375;SDS011;3728;42.266;24.944;2024-02-26T03:05:03;17.27;;;13.93;;
7375;SDS011;3728;42.266;24.944;2024-02-26T03:07:30;19.23;;;13.10;;
7375;SDS011;3728;42.266;24.944;2024-02-26T03:09:58;22.30;;;14.57;;
7375;SDS011;3728;42.266;24.944;2024-02-26T03:12:25;22.53;;;14.77;;
7375;SDS011;3728;42.266;24.944;2024-02-26T03:14:54;19.77;;;15.03;;
7375;SDS011;3728;42.266;24.944;2024-02-26T03:17:21;20.47;;;14.07;;
7375;SDS011;3728;42.266;24.944;2024-02-26T03:19:51;20.67;;;14.07;;
7375;SDS011;3728;42.266;24.944;2024-02-26T03:22:20;22.00;;;14.10;;
7375;SDS011;3728;42.266;24.944;2024-02-26T03:24:47;17.03;;;13.67;;
7375;SDS011;3728;42.266;24.944;2024-02-26T03:27:15;20.47;;;14.50;;
7375;SDS011;3728;42.266;24.944;2024-02-26T03:29:42;22.53;;;14.43;;
7375;SDS011;3728;42.266;24.944;2024-02-26T03:32:09;19.97;;;14.33;;
7375;SDS011;3728;42.266;24.944;2024-02-26T03:34:36;16.97;;;14.07;;
7375;SDS011;3728;42.266;24.944;2024-02-26T03:37:05;17.73;;;14.03;;
7375;SDS011;3728;42.266;24.944;2024-02-26T03:39:34;19.40;;;14.40;;
7375;SDS011;3728;42.266;24.944;2024-02-26T03:42:01;23.00;;;14.37;;
7375;SDS011;3728;42.266;24.944;2024-02-26T03:44:28;19.07;;;13.50;;
7375;SDS011;3728;42.266;24.944;2024-02-26T03:46:55;23.83;;;17.50;;
7375;SDS011;3728;42.266;24.944;2024-02-26T03:49:22;37.20;;;26.20;;
7375;SDS011;3728;42.266;24.944;2024-02-26T03:51:49;26.43;;;17.10;;
7375;SDS011;3728;42.266;24.944;2024-02-26T03:54:16;24.10;;;17.57;;
7375;SDS011;3728;42.266;24.944;2024-02-26T03:56:43;20.67;;;14.63;;
7375;SDS011;3728;42.266;24.944;2024-02-26T03:59:10;22.17;;;15.43;;
7375;SDS011;3728;42.266;24.944;2024-02-26T04:01:37;22.77;;;16.77;;
7375;SDS011;3728;42.266;24.944;2024-02-26T04:04:05;32.70;;;20.07;;
7375;SDS011;3728;42.266;24.944;2024-02-26T04:06:32;25.17;;;16.83;;
7375;SDS011;3728;42.266;24.944;2024-02-26T04:09:00;29.30;;;17.47;;
7375;SDS011;3728;42.266;24.944;2024-02-26T04:11:30;28.70;;;18.90;;
7375;SDS011;3728;42.266;24.944;2024-02-26T04:13:57;41.23;;;22.77;;
7375;SDS011;3728;42.266;24.944;2024-02-26T04:16:24;27.13;;;17.70;;
7375;SDS011;3728;42.266;24.944;2024-02-26T04:18:51;26.27;;;17.20;;
7375;SDS011;3728;42.266;24.944;2024-02-26T04:21:20;35.30;;;19.83;;
7375;SDS011;3728;42.266;24.944;2024-02-26T04:23:47;32.57;;;18.57;;
7375;SDS011;3728;42.266;24.944;2024-02-26T04:26:15;30.13;;;17.97;;
7375;SDS011;3728;42.266;24.944;2024-02-26T04:28:42;25.57;;;16.83;;
7375;SDS011;3728;42.266;24.944;2024-02-26T04:31:09;24.80;;;18.50;;
7375;SDS011;3728;42.266;24.944;2024-02-26T04:33:36;26.53;;;18.97;;
7375;SDS011;3728;42.266;24.944;2024-02-26T04:36:03;25.07;;;18.30;;
7375;SDS011;3728;42.266;24.944;2024-02-26T04:38:31;26.67;;;18.13;;
7375;SDS011;3728;42.266;24.944;2024-02-26T04:40:58;29.70;;;20.23;;
7375;SDS011;3728;42.266;24.944;2024-02-26T04:43:25;28.03;;;18.97;;
7375;SDS011;3728;42.266;24.944;2024-02-26T04:45:52;26.40;;;15.90;;
7375;SDS011;3728;42.266;24.944;2024-02-26T04:48:19;31.60;;;22.07;;
7375;SDS011;3728;42.266;24.944;2024-02-26T04:50:46;44.33;;;26.10;;
7375;SDS011;3728;42.266;24.944;2024-02-26T04:53:13;53.77;;;29.20;;
7375;SDS011;3728;42.266;24.944;2024-02-26T04:55:40;46.93;;;29.40;;
7375;SDS011;3728;42.266;24.944;2024-02-26T04:58:07;46.00;;;25.47;;
7375;SDS011;3728;42.266;24.944;2024-02-26T05:00:34;47.40;;;26.23;;
7375;SDS011;3728;42.266;24.944;2024-02-26T05:03:01;47.33;;;24.73;;
7375;SDS011;3728;42.266;24.944;2024-02-26T05:05:28;41.87;;;24.10;;
7375;SDS011;3728;42.266;24.944;2024-02-26T05:07:55;32.57;;;21.70;;
7375;SDS011;3728;42.266;24.944;2024-02-26T05:10:22;29.47;;;19.80;;
7375;SDS011;3728;42.266;24.944;2024-02-26T05:12:49;29.77;;;17.87;;
7375;SDS011;3728;42.266;24.944;2024-02-26T05:15:16;27.97;;;16.43;;
7375;SDS011;3728;42.266;24.944;2024-02-26T05:17:45;27.13;;;16.47;;
7375;SDS011;3728;42.266;24.944;2024-02-26T05:20:12;25.13;;;15.93;;
7375;SDS011;3728;42.266;24.944;2024-02-26T05:22:39;26.87;;;16.73;;
7375;SDS011;3728;42.266;24.944;2024-02-26T05:25:06;30.53;;;17.80;;
7375;SDS011;3728;42.266;24.944;2024-02-26T05:27:33;32.93;;;17.43;;
7375;SDS011;3728;42.266;24.944;2024-02-26T05:30:00;27.93;;;17.00;;
7375;SDS011;3728;42.266;24.944;2024-02-26T05:32:27;28.33;;;15.97;;
7375;SDS011;3728;42.266;24.944;2024-02-26T05:34:54;25.13;;;16.57;;
7375;SDS011;3728;42.266;24.944;2024-02-26T05:37:21;30.53;;;17.20;;
7375;SDS011;3728;42.266;24.944;2024-02-26T05:39:48;25.27;;;17.70;;
7375;SDS011;3728;42.266;24.944;2024-02-26T05:42:15;28.40;;;18.40;;
7375;SDS011;3728;42.266;24.944;2024-02-26T05:44:42;60.77;;;30.50;;
7375;SDS011;3728;42.266;24.944;2024-02-26T05:47:09;61.73;;;34.13;;
7375;SDS011;3728;42.266;24.944;2024-02-26T05:49:36;50.50;;;28.13;;
7375;SDS011;3728;42.266;24.944;2024-02-26T05:52:04;41.77;;;24.83;;
7375;SDS011;3728;42.266;24.944;2024-02-26T05:54:31;43.70;;;23.80;;
7375;SDS011;3728;42.266;24.944;2024-02-26T05:56:59;36.37;;;22.43;;
7375;SDS011;3728;42.266;24.944;2024-02-26T05:59:28;23.20;;;14.67;;
7375;SDS011;3728;42.266;24.944;2024-02-26T06:01:55;25.40;;;15.10;;
7375;SDS011;3728;42.266;24.944;2024-02-26T06:04:23;15.67;;;11.97;;
7375;SDS011;3728;42.266;24.944;2024-02-26T06:06:50;14.80;;;11.40;;
7375;SDS011;3728;42.266;24.944;2024-02-26T06:09:20;15.00;;;11.30;;
7375;SDS011;3728;42.266;24.944;2024-02-26T06:11:49;17.33;;;12.43;;
7375;SDS011;3728;42.266;24.944;2024-02-26T06:14:16;17.30;;;11.50;;
7375;SDS011;3728;42.266;24.944;2024-02-26T06:16:45;15.57;;;11.27;;
7375;SDS011;3728;42.266;24.944;2024-02-26T06:19:12;15.03;;;10.57;;
7375;SDS011;3728;42.266;24.944;2024-02-26T06:21:40;14.77;;;10.80;;
7375;SDS011;3728;42.266;24.944;2024-02-26T06:24:06;15.67;;;12.20;;
7375;SDS011;3728;42.266;24.944;2024-02-26T06:26:34;16.93;;;13.53;;
7375;SDS011;3728;42.266;24.944;2024-02-26T06:29:01;17.63;;;13.17;;
7375;SDS011;3728;42.266;24.944;2024-02-26T06:31:27;24.27;;;13.83;;
7375;SDS011;3728;42.266;24.944;2024-02-26T06:33:55;18.93;;;12.93;;
7375;SDS011;3728;42.266;24.944;2024-02-26T06:36:23;23.87;;;13.73;;
7375;SDS011;3728;42.266;24.944;2024-02-26T06:38:50;47.70;;;29.63;;
7375;SDS011;3728;42.266;24.944;2024-02-26T06:41:18;50.47;;;30.47;;
7375;SDS011;3728;42.266;24.944;2024-02-26T06:43:45;33.93;;;22.07;;
7375;SDS011;3728;42.266;24.944;2024-02-26T06:46:12;27.73;;;17.93;;
7375;SDS011;3728;42.266;24.944;2024-02-26T06:48:39;34.03;;;21.30;;
7375;SDS011;3728;42.266;24.944;2024-02-26T06:51:06;32.00;;;20.80;;
7375;SDS011;3728;42.266;24.944;2024-02-26T06:53:33;24.10;;;17.17;;
7375;SDS011;3728;42.266;24.944;2024-02-26T06:56:00;19.33;;;14.53;;
7375;SDS011;3728;42.266;24.944;2024-02-26T06:58:27;19.50;;;12.10;;
7375;SDS011;3728;42.266;24.944;2024-02-26T07:00:54;17.93;;;12.77;;
7375;SDS011;3728;42.266;24.944;2024-02-26T07:03:21;18.60;;;13.00;;
7375;SDS011;3728;42.266;24.944;2024-02-26T07:05:49;18.33;;;13.27;;
7375;SDS011;3728;42.266;24.944;2024-02-26T07:08:17;17.33;;;12.73;;
7375;SDS011;3728;42.266;24.944;2024-02-26T07:10:44;18.40;;;12.93;;
7375;SDS011;3728;42.266;24.944;2024-02-26T07:13:11;19.40;;;13.40;;
7375;SDS011;3728;42.266;24.944;2024-02-26T07:15:38;18.80;;;14.27;;
7375;SDS011;3728;42.266;24.944;2024-02-26T07:18:06;15.63;;;13.47;;
7375;SDS011;3728;42.266;24.944;2024-02-26T07:20:33;17.27;;;13.13;;
7375;SDS011;3728;42.266;24.944;2024-02-26T07:23:01;18.30;;;12.73;;
7375;SDS011;3728;42.266;24.944;2024-02-26T07:25:28;16.70;;;11.20;;
7375;SDS011;3728;42.266;24.944;2024-02-26T07:27:55;18.80;;;12.47;;
7375;SDS011;3728;42.266;24.944;2024-02-26T07:30:22;17.57;;;12.23;;
7375;SDS011;3728;42.266;24.944;2024-02-26T07:32:49;15.20;;;11.50;;
7375;SDS011;3728;42.266;24.944;2024-02-26T07:35:17;15.53;;;11.33;;
7375;SDS011;3728;42.266;24.944;2024-02-26T07:37:44;15.47;;;11.97;;
7375;SDS011;3728;42.266;24.944;2024-02-26T07:40:14;13.37;;;10.73;;
7375;SDS011;3728;42.266;24.944;2024-02-26T07:42:41;12.80;;;10.30;;
7375;SDS011;3728;42.266;24.944;2024-02-26T07:45:09;15.00;;;10.77;;
7375;SDS011;3728;42.266;24.944;2024-02-26T07:47:36;17.40;;;10.60;;
7375;SDS011;3728;42.266;24.944;2024-02-26T07:50:07;21.27;;;11.20;;
7375;SDS011;3728;42.266;24.944;2024-02-26T07:52:35;19.17;;;9.87;;
7375;SDS011;3728;42.266;24.944;2024-02-26T07:55:02;15.50;;;10.80;;
7375;SDS011;3728;42.266;24.944;2024-02-26T07:57:33;12.87;;;10.03;;
7375;SDS011;3728;42.266;24.944;2024-02-26T08:00:01;14.70;;;10.37;;
7375;SDS011;3728;42.266;24.944;2024-02-26T08:02:29;14.77;;;10.30;;
7375;SDS011;3728;42.266;24.944;2024-02-26T08:04:56;14.67;;;10.27;;
7375;SDS011;3728;42.266;24.944;2024-02-26T08:07:23;12.80;;;10.47;;
7375;SDS011;3728;42.266;24.944;2024-02-26T08:09:52;12.93;;;10.80;;
7375;SDS011;3728;42.266;24.944;2024-02-26T08:12:19;15.90;;;10.97;;
7375;SDS011;3728;42.266;24.944;2024-02-26T08:14:46;14.50;;;10.30;;
7375;SDS011;3728;42.266;24.944;2024-02-26T08:17:13;13.73;;;10.30;;
7375;SDS011;3728;42.266;24.944;2024-02-26T08:19:41;16.13;;;10.13;;
7375;SDS011;3728;42.266;24.944;2024-02-26T08:22:09;15.17;;;10.00;;
7375;SDS011;3728;42.266;24.944;2024-02-26T08:24:42;12.57;;;9.33;;
7375;SDS011;3728;42.266;24.944;2024-02-26T08:27:09;13.87;;;11.60;;
7375;SDS011;3728;42.266;24.944;2024-02-26T08:29:36;16.57;;;12.90;;
7375;SDS011;3728;42.266;24.944;2024-02-26T08:32:03;18.77;;;13.97;;
7375;SDS011;3728;42.266;24.944;2024-02-26T08:34:32;13.63;;;9.63;;
7375;SDS011;3728;42.266;24.944;2024-02-26T08:36:59;14.73;;;10.17;;
7375;SDS011;3728;42.266;24.944;2024-02-26T08:39:26;13.87;;;10.20;;
7375;SDS011;3728;42.266;24.944;2024-02-26T08:41:53;15.53;;;11.03;;
7375;SDS011;3728;42.266;24.944;2024-02-26T08:44:20;15.57;;;9.87;;
7375;SDS011;3728;42.266;24.944;2024-02-26T08:46:48;11.60;;;8.30;;
7375;SDS011;3728;42.266;24.944;2024-02-26T08:49:15;10.17;;;8.27;;
7375;SDS011;3728;42.266;24.944;2024-02-26T08:51:42;12.20;;;8.30;;
7375;SDS011;3728;42.266;24.944;2024-02-26T08:54:10;16.87;;;9.20;;
7375;SDS011;3728;42.266;24.944;2024-02-26T08:56:37;11.57;;;8.70;;
7375;SDS011;3728;42.266;24.944;2024-02-26T08:59:05;11.23;;;8.10;;
7375;SDS011;3728;42.266;24.944;2024-02-26T09:01:32;18.77;;;10.97;;
7375;SDS011;3728;42.266;24.944;2024-02-26T09:03:59;14.27;;;10.20;;
7375;SDS011;3728;42.266;24.944;2024-02-26T09:06:27;14.63;;;9.63;;
7375;SDS011;3728;42.266;24.944;2024-02-26T09:08:56;12.63;;;8.53;;
7375;SDS011;3728;42.266;24.944;2024-02-26T09:11:27;10.87;;;8.53;;
7375;SDS011;3728;42.266;24.944;2024-02-26T09:13:55;12.23;;;7.87;;
7375;SDS011;3728;42.266;24.944;2024-02-26T09:16:22;15.53;;;8.23;;
7375;SDS011;3728;42.266;24.944;2024-02-26T09:18:49;13.63;;;8.13;;
7375;SDS011;3728;42.266;24.944;2024-02-26T09:21:16;20.93;;;14.77;;
7375;SDS011;3728;42.266;24.944;2024-02-26T09:23:50;16.87;;;11.03;;
7375;SDS011;3728;42.266;24.944;2024-02-26T09:26:18;10.77;;;8.17;;
7375;SDS011;3728;42.266;24.944;2024-02-26T09:28:45;12.27;;;7.83;;
7375;SDS011;3728;42.266;24.944;2024-02-26T09:31:13;10.10;;;8.57;;
7375;SDS011;3728;42.266;24.944;2024-02-26T09:33:45;12.10;;;7.63;;
7375;SDS011;3728;42.266;24.944;2024-02-26T09:36:12;13.03;;;9.37;;
7375;SDS011;3728;42.266;24.944;2024-02-26T09:38:40;12.67;;;8.40;;
7375;SDS011;3728;42.266;24.944;2024-02-26T09:41:22;18.37;;;10.77;;
7375;SDS011;3728;42.266;24.944;2024-02-26T09:43:49;12.20;;;8.43;;
7375;SDS011;3728;42.266;24.944;2024-02-26T09:46:20;13.57;;;8.90;;
7375;SDS011;3728;42.266;24.944;2024-02-26T09:48:48;13.33;;;9.37;;
7375;SDS011;3728;42.266;24.944;2024-02-26T09:51:15;12.00;;;9.03;;
7375;SDS011;3728;42.266;24.944;2024-02-26T09:53:44;10.50;;;8.77;;
7375;SDS011;3728;42.266;24.944;2024-02-26T09:56:13;14.17;;;9.23;;
7375;SDS011;3728;42.266;24.944;2024-02-26T09:58:41;14.57;;;9.83;;
7375;SDS011;3728;42.266;24.944;2024-02-26T10:01:13;13.33;;;8.10;;
7375;SDS011;3728;42.266;24.944;2024-02-26T10:03:44;61.00;;;15.10;;
7375;SDS011;3728;42.266;24.944;2024-02-26T10:06:19;10.97;;;6.80;;
7375;SDS011;3728;42.266;24.944;2024-02-26T10:08:46;10.87;;;7.70;;
7375;SDS011;3728;42.266;24.944;2024-02-26T10:11:14;15.50;;;8.03;;
7375;SDS011;3728;42.266;24.944;2024-02-26T10:13:42;14.33;;;8.80;;
7375;SDS011;3728;42.266;24.944;2024-02-26T10:16:09;13.90;;;7.70;;
7375;SDS011;3728;42.266;24.944;2024-02-26T10:18:46;10.47;;;7.90;;
7375;SDS011;3728;42.266;24.944;2024-02-26T10:21:22;11.17;;;8.87;;
7375;SDS011;3728;42.266;24.944;2024-02-26T10:23:49;14.50;;;10.57;;
7375;SDS011;3728;42.266;24.944;2024-02-26T10:26:19;17.80;;;9.90;;
7375;SDS011;3728;42.266;24.944;2024-02-26T10:28:47;23.47;;;10.57;;
7375;SDS011;3728;42.266;24.944;2024-02-26T10:31:20;12.20;;;9.87;;
7375;SDS011;3728;42.266;24.944;2024-02-26T10:33:50;14.97;;;9.53;;
7375;SDS011;3728;42.266;24.944;2024-02-26T10:36:22;14.87;;;9.67;;
7375;SDS011;3728;42.266;24.944;2024-02-26T10:39:06;11.07;;;8.97;;
7375;SDS011;3728;42.266;24.944;2024-02-26T10:41:34;12.87;;;9.77;;
7375;SDS011;3728;42.266;24.944;2024-02-26T10:44:02;13.90;;;9.90;;
7375;SDS011;3728;42.266;24.944;2024-02-26T10:46:32;17.33;;;10.67;;
7375;SDS011;3728;42.266;24.944;2024-02-26T10:48:59;10.97;;;9.47;;
7375;SDS011;3728;42.266;24.944;2024-02-26T10:51:29;12.03;;;9.77;;
7375;SDS011;3728;42.266;24.944;2024-02-26T10:53:57;14.30;;;10.97;;
7375;SDS011;3728;42.266;24.944;2024-02-26T10:56:30;16.37;;;10.60;;
7375;SDS011;3728;42.266;24.944;2024-02-26T10:59:01;8.83;;;7.90;;
7375;SDS011;3728;42.266;24.944;2024-02-26T11:01:28;13.03;;;8.83;;
7375;SDS011;3728;42.266;24.944;2024-02-26T11:03:59;16.10;;;10.77;;
7375;SDS011;3728;42.266;24.944;2024-02-26T11:06:28;18.70;;;12.20;;
7375;SDS011;3728;42.266;24.944;2024-02-26T11:08:55;15.77;;;11.20;;
7375;SDS011;3728;42.266;24.944;2024-02-26T11:11:24;18.70;;;11.40;;
7375;SDS011;3728;42.266;24.944;2024-02-26T11:13:54;25.57;;;10.53;;
7375;SDS011;3728;42.266;24.944;2024-02-26T11:16:24;10.40;;;8.07;;
7375;SDS011;3728;42.266;24.944;2024-02-26T11:18:53;9.40;;;7.87;;
7375;SDS011;3728;42.266;24.944;2024-02-26T11:21:22;10.03;;;7.83;;
7375;SDS011;3728;42.266;24.944;2024-02-26T11:23:55;14.10;;;9.43;;
7375;SDS011;3728;42.266;24.944;2024-02-26T11:26:22;12.67;;;9.50;;
7375;SDS011;3728;42.266;24.944;2024-02-26T11:28:51;16.07;;;9.27;;
7375;SDS011;3728;42.266;24.944;2024-02-26T11:31:23;11.30;;;6.57;;
7375;SDS011;3728;42.266;24.944;2024-02-26T11:33:54;9.03;;;6.20;;
7375;SDS011;3728;42.266;24.944;2024-02-26T11:36:23;9.07;;;5.70;;
7375;SDS011;3728;42.266;24.944;2024-02-26T11:38:51;9.90;;;7.10;;
7375;SDS011;3728;42.266;24.944;2024-02-26T11:41:18;7.67;;;5.70;;
7375;SDS011;3728;42.266;24.944;2024-02-26T11:43:53;11.40;;;6.60;;
7375;SDS011;3728;42.266;24.944;2024-02-26T11:46:30;7.80;;;6.13;;
7375;SDS011;3728;42.266;24.944;2024-02-26T11:48:59;19.23;;;6.93;;
7375;SDS011;3728;42.266;24.944;2024-02-26T11:51:34;10.63;;;6.73;;
7375;SDS011;3728;42.266;24.944;2024-02-26T11:54:02;10.17;;;5.90;;
7375;SDS011;3728;42.266;24.944;2024-02-26T11:56:29;8.97;;;6.70;;
7375;SDS011;3728;42.266;24.944;2024-02-26T11:59:08;8.17;;;5.67;;
7375;SDS011;3728;42.266;24.944;2024-02-26T12:04:11;15.03;;;6.93;;
7375;SDS011;3728;42.266;24.944;2024-02-26T12:06:48;9.47;;;6.03;;
7375;SDS011;3728;42.266;24.944;2024-02-26T12:11:59;5.50;;;4.37;;
7375;SDS011;3728;42.266;24.944;2024-02-26T12:14:31;6.03;;;4.30;;
7375;SDS011;3728;42.266;24.944;2024-02-26T12:17:00;5.77;;;3.87;;
7375;SDS011;3728;42.266;24.944;2024-02-26T12:19:33;10.63;;;4.37;;
7375;SDS011;3728;42.266;24.944;2024-02-26T12:22:06;7.77;;;4.40;;
7375;SDS011;3728;42.266;24.944;2024-02-26T12:24:37;4.67;;;4.10;;
7375;SDS011;3728;42.266;24.944;2024-02-26T12:27:04;9.63;;;4.50;;
7375;SDS011;3728;42.266;24.944;2024-02-26T12:29:32;6.93;;;4.83;;
7375;SDS011;3728;42.266;24.944;2024-02-26T12:31:59;6.23;;;4.57;;
7375;SDS011;3728;42.266;24.944;2024-02-26T12:34:26;8.05;;;4.05;;
7375;SDS011;3728;42.266;24.944;2024-02-26T12:36:53;6.35;;;4.45;;
7375;SDS011;3728;42.266;24.944;2024-02-26T12:39:21;6.20;;;4.50;;
7375;SDS011;3728;42.266;24.944;2024-02-26T12:41:48;8.30;;;4.53;;
7375;SDS011;3728;42.266;24.944;2024-02-26T12:44:16;7.80;;;4.55;;
7375;SDS011;3728;42.266;24.944;2024-02-26T12:46:43;7.90;;;4.75;;
7375;SDS011;3728;42.266;24.944;2024-02-26T12:49:14;11.43;;;5.40;;
7375;SDS011;3728;42.266;24.944;2024-02-26T12:51:44;6.60;;;4.50;;
7375;SDS011;3728;42.266;24.944;2024-02-26T12:54:12;8.57;;;4.90;;
7375;SDS011;3728;42.266;24.944;2024-02-26T12:56:40;8.77;;;4.63;;
7375;SDS011;3728;42.266;24.944;2024-02-26T12:59:08;7.80;;;4.93;;
7375;SDS011;3728;42.266;24.944;2024-02-26T13:01:35;8.57;;;5.00;;
7375;SDS011;3728;42.266;24.944;2024-02-26T13:04:02;10.23;;;4.70;;
7375;SDS011;3728;42.266;24.944;2024-02-26T13:06:34;7.47;;;4.80;;
7375;SDS011;3728;42.266;24.944;2024-02-26T13:09:02;14.40;;;5.17;;
7375;SDS011;3728;42.266;24.944;2024-02-26T13:11:30;8.27;;;4.90;;
7375;SDS011;3728;42.266;24.944;2024-02-26T13:13:58;8.67;;;5.00;;
7375;SDS011;3728;42.266;24.944;2024-02-26T13:16:25;5.67;;;3.93;;
7375;SDS011;3728;42.266;24.944;2024-02-26T13:18:53;6.90;;;4.60;;
7375;SDS011;3728;42.266;24.944;2024-02-26T13:21:20;8.40;;;4.40;;
7375;SDS011;3728;42.266;24.944;2024-02-26T13:23:52;10.30;;;5.03;;
7375;SDS011;3728;42.266;24.944;2024-02-26T13:26:22;6.37;;;5.20;;
7375;SDS011;3728;42.266;24.944;2024-02-26T13:29:01;9.03;;;4.17;;
7375;SDS011;3728;42.266;24.944;2024-02-26T13:31:30;6.60;;;3.53;;
7375;SDS011;3728;42.266;24.944;2024-02-26T13:33:58;10.23;;;3.83;;
7375;SDS011;3728;42.266;24.944;2024-02-26T13:36:29;7.07;;;3.73;;
7375;SDS011;3728;42.266;24.944;2024-02-26T13:38:57;5.70;;;3.40;;
7375;SDS011;3728;42.266;24.944;2024-02-26T13:41:24;4.83;;;3.20;;
7375;SDS011;3728;42.266;24.944;2024-02-26T13:43:51;7.40;;;3.40;;
7375;SDS011;3728;42.266;24.944;2024-02-26T13:46:18;5.43;;;3.27;;
7375;SDS011;3728;42.266;24.944;2024-02-26T13:48:45;4.43;;;3.17;;
7375;SDS011;3728;42.266;24.944;2024-02-26T13:51:14;4.83;;;2.87;;
7375;SDS011;3728;42.266;24.944;2024-02-26T13:53:41;6.53;;;3.20;;
7375;SDS011;3728;42.266;24.944;2024-02-26T13:56:08;3.40;;;2.63;;
7375;SDS011;3728;42.266;24.944;2024-02-26T13:58:36;4.00;;;2.70;;
7375;SDS011;3728;42.266;24.944;2024-02-26T14:01:03;6.73;;;3.03;;
7375;SDS011;3728;42.266;24.944;2024-02-26T14:03:32;5.33;;;3.13;;
7375;SDS011;3728;42.266;24.944;2024-02-26T14:06:02;2.90;;;2.30;;
7375;SDS011;3728;42.266;24.944;2024-02-26T14:08:30;6.93;;;2.97;;
7375;SDS011;3728;42.266;24.944;2024-02-26T14:10:58;3.13;;;2.47;;
7375;SDS011;3728;42.266;24.944;2024-02-26T14:13:28;5.90;;;2.57;;
7375;SDS011;3728;42.266;24.944;2024-02-26T14:15:55;5.23;;;2.73;;
7375;SDS011;3728;42.266;24.944;2024-02-26T14:18:22;9.57;;;2.93;;
7375;SDS011;3728;42.266;24.944;2024-02-26T14:20:50;4.50;;;2.43;;
7375;SDS011;3728;42.266;24.944;2024-02-26T14:23:18;7.87;;;2.67;;
7375;SDS011;3728;42.266;24.944;2024-02-26T14:25:45;5.07;;;2.50;;
7375;SDS011;3728;42.266;24.944;2024-02-26T14:28:12;9.63;;;3.13;;
7375;SDS011;3728;42.266;24.944;2024-02-26T14:30:47;4.97;;;3.17;;
7375;SDS011;3728;42.266;24.944;2024-02-26T14:33:15;5.03;;;2.87;;
7375;SDS011;3728;42.266;24.944;2024-02-26T14:35:42;4.70;;;2.53;;
7375;SDS011;3728;42.266;24.944;2024-02-26T14:38:09;8.43;;;2.67;;
7375;SDS011;3728;42.266;24.944;2024-02-26T14:40:36;6.23;;;3.20;;
7375;SDS011;3728;42.266;24.944;2024-02-26T14:43:03;6.00;;;3.10;;
7375;SDS011;3728;42.266;24.944;2024-02-26T14:45:31;6.77;;;3.70;;
7375;SDS011;3728;42.266;24.944;2024-02-26T14:47:58;4.23;;;3.43;;
7375;SDS011;3728;42.266;24.944;2024-02-26T14:50:26;6.00;;;3.07;;
7375;SDS011;3728;42.266;24.944;2024-02-26T14:52:53;4.53;;;2.97;;
7375;SDS011;3728;42.266;24.944;2024-02-26T14:55:20;3.80;;;2.70;;